TimeCST,TemperatureF,Dew PointF,Humidity,Sea Level PressureIn,VisibilityMPH,Wind Direction,Wind SpeedMPH,Gust SpeedMPH,PrecipitationIn,Events,Conditions,WindDirDegrees,DateUTC
12:15 AM,42.8,33.4,70,30.36,10.0,ENE,5.8,-,N/A,,Clear,70,2012-11-14 06:15:00
12:35 AM,41.9,32.9,70,30.38,10.0,Calm,Calm,-,N/A,,Clear,0,2012-11-14 06:35:00
12:55 AM,41.2,33.1,73,30.37,10.0,NNE,4.6,-,N/A,,Clear,30,2012-11-14 06:55:00
1:15 AM,40.5,32.9,74,30.37,10.0,NE,4.6,-,N/A,,Clear,50,2012-11-14 07:15:00
1:35 AM,41.0,33.1,73,30.39,10.0,North,4.6,-,N/A,,Clear,10,2012-11-14 07:35:00
1:55 AM,39.2,32.7,78,30.39,10.0,North,3.5,-,N/A,,Clear,360,2012-11-14 07:55:00
2:15 AM,39.6,32.5,76,30.38,10.0,Calm,Calm,-,N/A,,Clear,0,2012-11-14 08:15:00
2:35 AM,36.5,33.3,88,30.39,10.0,WNW,4.6,-,N/A,,Clear,300,2012-11-14 08:35:00
2:55 AM,38.3,32.9,81,30.40,10.0,NW,5.8,-,N/A,,Clear,310,2012-11-14 08:55:00
3:15 AM,37.4,33.4,86,30.40,10.0,NW,3.5,-,N/A,,Clear,320,2012-11-14 09:15:00
3:35 AM,38.1,35.1,89,30.38,10.0,NNE,3.5,-,N/A,,Clear,20,2012-11-14 09:35:00
3:55 AM,38.3,34.7,87,30.38,10.0,WNW,3.5,-,N/A,,Scattered Clouds,300,2012-11-14 09:55:00
4:15 AM,39.2,34.5,83,30.38,10.0,NW,3.5,-,N/A,,Overcast,320,2012-11-14 10:15:00
4:35 AM,40.3,34.5,80,30.37,10.0,NNE,5.8,-,N/A,,Overcast,20,2012-11-14 10:35:00
4:55 AM,41.0,34.0,76,30.37,10.0,NNE,3.5,-,N/A,,Overcast,30,2012-11-14 10:55:00
5:15 AM,41.5,33.8,74,30.37,10.0,North,3.5,-,N/A,,Overcast,10,2012-11-14 11:15:00
5:35 AM,41.9,33.6,72,30.38,10.0,North,4.6,-,N/A,,Overcast,360,2012-11-14 11:35:00
5:55 AM,41.9,32.9,70,30.39,10.0,Calm,Calm,-,N/A,,Overcast,0,2012-11-14 11:55:00
6:15 AM,41.0,33.8,76,30.38,10.0,Calm,Calm,-,N/A,,Overcast,0,2012-11-14 12:15:00
6:35 AM,41.2,33.6,74,30.39,10.0,Calm,Calm,-,N/A,,Overcast,0,2012-11-14 12:35:00
6:55 AM,41.4,33.6,74,30.40,10.0,Calm,Calm,-,N/A,,Overcast,0,2012-11-14 12:55:00
7:15 AM,41.2,33.3,73,30.40,10.0,Calm,Calm,-,N/A,,Overcast,0,2012-11-14 13:15:00
7:35 AM,40.5,33.8,77,30.41,10.0,Calm,Calm,-,N/A,,Scattered Clouds,0,2012-11-14 13:35:00
7:55 AM,41.9,34.5,75,30.41,10.0,Calm,Calm,-,N/A,,Clear,0,2012-11-14 13:55:00
8:15 AM,46.6,33.6,61,30.42,10.0,Calm,Calm,-,N/A,,Scattered Clouds,0,2012-11-14 14:15:00
8:35 AM,47.1,33.1,58,30.41,10.0,ENE,4.6,-,N/A,,Scattered Clouds,60,2012-11-14 14:35:00
8:55 AM,48.9,33.3,55,30.41,10.0,East,3.5,-,N/A,,Mostly Cloudy,80,2012-11-14 14:55:00
9:15 AM,49.3,32.0,51,30.41,10.0,NE,4.6,-,N/A,,Scattered Clouds,40,2012-11-14 15:15:00
9:35 AM,50.7,32.4,49,30.42,10.0,East,3.5,-,N/A,,Clear,80,2012-11-14 15:35:00
9:55 AM,51.8,32.2,47,30.42,10.0,Calm,Calm,-,N/A,,Clear,0,2012-11-14 15:55:00
10:15 AM,52.5,31.5,45,30.42,10.0,NE,3.5,-,N/A,,Clear,40,2012-11-14 16:15:00
10:35 AM,55.0,31.8,41,30.41,10.0,NE,3.5,-,N/A,,Clear,50,2012-11-14 16:35:00
10:55 AM,55.8,31.6,40,30.40,10.0,Calm,Calm,-,N/A,,Clear,0,2012-11-14 16:55:00
11:15 AM,57.4,31.1,37,30.39,10.0,NE,3.5,-,N/A,,Clear,40,2012-11-14 17:15:00
11:35 AM,58.3,30.9,35,30.38,10.0,NNW,3.5,-,N/A,,Clear,330,2012-11-14 17:35:00
11:55 AM,58.5,31.3,36,30.37,10.0,NW,3.5,-,N/A,,Clear,320,2012-11-14 17:55:00
12:15 PM,59.2,31.3,35,30.36,10.0,North,10.4,-,N/A,,Clear,350,2012-11-14 18:15:00
12:35 PM,59.4,29.8,33,30.35,10.0,North,9.2,-,N/A,,Clear,350,2012-11-14 18:35:00
12:55 PM,60.1,30.0,32,30.34,10.0,NNE,6.9,-,N/A,,Clear,20,2012-11-14 18:55:00
1:15 PM,60.8,31.8,34,30.34,10.0,NNW,4.6,-,N/A,,Clear,330,2012-11-14 19:15:00
1:35 PM,61.0,30.9,32,30.33,10.0,North,5.8,-,N/A,,Clear,10,2012-11-14 19:35:00
1:55 PM,61.5,31.5,32,30.32,10.0,North,4.6,-,N/A,,Clear,360,2012-11-14 19:55:00
2:15 PM,61.7,31.6,32,30.32,10.0,North,10.4,-,N/A,,Clear,360,2012-11-14 20:15:00
2:35 PM,61.7,32.2,33,30.32,10.0,North,10.4,-,N/A,,Clear,360,2012-11-14 20:35:00
2:55 PM,61.2,32.0,33,30.31,10.0,NNE,6.9,-,N/A,,Clear,20,2012-11-14 20:55:00
3:15 PM,61.0,31.8,33,30.30,10.0,NNW,9.2,-,N/A,,Clear,330,2012-11-14 21:15:00
3:35 PM,60.8,31.8,34,30.30,10.0,North,9.2,-,N/A,,Clear,350,2012-11-14 21:35:00
3:55 PM,60.1,31.3,34,30.30,5.0,North,8.1,-,N/A,,Haze,360,2012-11-14 21:55:00
4:15 PM,59.4,32.2,36,30.30,10.0,NNW,4.6,-,N/A,,Clear,340,2012-11-14 22:15:00
4:35 PM,57.9,32.0,37,30.30,10.0,North,5.8,-,N/A,,Clear,10,2012-11-14 22:35:00
4:55 PM,55.8,32.0,41,30.30,10.0,North,5.8,-,N/A,,Clear,360,2012-11-14 22:55:00
5:15 PM,52.3,32.2,46,30.30,10.0,North,4.6,-,N/A,,Clear,10,2012-11-14 23:15:00
5:35 PM,51.1,32.0,48,30.31,10.0,North,4.6,-,N/A,,Clear,10,2012-11-14 23:35:00
5:55 PM,48.0,34.3,59,30.31,10.0,Calm,Calm,-,N/A,,Clear,0,2012-11-14 23:55:00
6:15 PM,44.1,35.2,71,30.32,10.0,Calm,Calm,-,N/A,,Clear,0,2012-11-15 00:15:00
6:35 PM,42.4,35.8,77,30.31,10.0,Calm,Calm,-,N/A,,Clear,0,2012-11-15 00:35:00
6:55 PM,43.9,34.9,71,30.32,10.0,Calm,Calm,-,N/A,,Clear,0,2012-11-15 00:55:00
7:15 PM,41.0,36.3,83,30.32,10.0,Calm,Calm,-,N/A,,Clear,0,2012-11-15 01:15:00
7:35 PM,41.4,34.7,77,30.32,10.0,Calm,Calm,-,N/A,,Clear,0,2012-11-15 01:35:00
7:55 PM,39.2,35.8,88,30.32,10.0,Calm,Calm,-,N/A,,Clear,0,2012-11-15 01:55:00
8:35 PM,37.9,35.4,91,30.33,10.0,Calm,Calm,-,N/A,,Clear,0,2012-11-15 02:35:00
8:55 PM,37.0,35.1,93,30.34,10.0,Calm,Calm,-,N/A,,Clear,0,2012-11-15 02:55:00
9:15 PM,36.7,35.2,95,30.33,10.0,Calm,Calm,-,N/A,,Clear,0,2012-11-15 03:15:00
9:35 PM,36.5,35.4,96,30.33,10.0,Calm,Calm,-,N/A,,Clear,0,2012-11-15 03:35:00
9:55 PM,35.8,34.7,96,30.34,10.0,Calm,Calm,-,N/A,,Clear,0,2012-11-15 03:55:00
10:15 PM,34.9,33.8,96,30.33,10.0,Calm,Calm,-,N/A,,Clear,0,2012-11-15 04:15:00
10:35 PM,34.2,33.3,97,30.33,10.0,Calm,Calm,-,N/A,,Clear,0,2012-11-15 04:35:00
10:55 PM,33.8,33.4,99,30.33,10.0,Calm,Calm,-,N/A,,Clear,0,2012-11-15 04:55:00
11:15 PM,33.4,33.1,99,30.33,10.0,Calm,Calm,-,N/A,,Clear,0,2012-11-15 05:15:00
11:35 PM,33.8,33.3,98,30.33,10.0,Calm,Calm,-,N/A,,Clear,0,2012-11-15 05:35:00
11:55 PM,33.1,32.7,99,30.33,10.0,Calm,Calm,-,N/A,,Clear,0,2012-11-15 05:55:00